sensor_id;sensor_type;location;lat;lon;timestamp;P1;durP1;ratioP1;P2;durP2;ratioP2
76589;SDS011;65471;55.908;37.880;2023-02-01T00:00:51;22.70;;;11.77;;
76589;SDS011;65471;55.908;37.880;2023-02-01T00:03:18;15.35;;;10.27;;
76589;SDS011;65471;55.908;37.880;2023-02-01T00:05:54;20.77;;;10.75;;
76589;SDS011;65471;55.908;37.880;2023-02-01T00:11:00;19.80;;;10.85;;
76589;SDS011;65471;55.908;37.880;2023-02-01T00:13:29;29.02;;;12.10;;
76589;SDS011;65471;55.908;37.880;2023-02-01T00:16:07;21.27;;;11.00;;
76589;SDS011;65471;55.908;37.880;2023-02-01T00:18:40;25.23;;;12.15;;
76589;SDS011;65471;55.908;37.880;2023-02-01T00:21:07;24.08;;;13.02;;
76589;SDS011;65471;55.908;37.880;2023-02-01T00:26:05;26.73;;;12.77;;
76589;SDS011;65471;55.908;37.880;2023-02-01T00:28:35;25.98;;;12.68;;
76589;SDS011;65471;55.908;37.880;2023-02-01T00:31:03;19.77;;;11.75;;
76589;SDS011;65471;55.908;37.880;2023-02-01T00:33:31;28.27;;;13.30;;
76589;SDS011;65471;55.908;37.880;2023-02-01T00:35:59;28.58;;;13.75;;
76589;SDS011;65471;55.908;37.880;2023-02-01T00:38:27;27.88;;;12.90;;
76589;SDS011;65471;55.908;37.880;2023-02-01T00:40:54;29.83;;;13.57;;
76589;SDS011;65471;55.908;37.880;2023-02-01T00:43:27;25.92;;;13.40;;
76589;SDS011;65471;55.908;37.880;2023-02-01T00:45:54;32.90;;;13.73;;
76589;SDS011;65471;55.908;37.880;2023-02-01T00:48:21;23.27;;;12.50;;
76589;SDS011;65471;55.908;37.880;2023-02-01T00:50:48;25.15;;;13.15;;
76589;SDS011;65471;55.908;37.880;2023-02-01T00:53:14;23.50;;;12.23;;
76589;SDS011;65471;55.908;37.880;2023-02-01T00:55:50;27.45;;;13.55;;
76589;SDS011;65471;55.908;37.880;2023-02-01T00:58:17;24.50;;;13.15;;
76589;SDS011;65471;55.908;37.880;2023-02-01T01:00:43;27.45;;;13.02;;
76589;SDS011;65471;55.908;37.880;2023-02-01T01:03:10;31.75;;;12.90;;
76589;SDS011;65471;55.908;37.880;2023-02-01T01:05:48;25.63;;;13.25;;
76589;SDS011;65471;55.908;37.880;2023-02-01T01:08:17;32.10;;;14.50;;
76589;SDS011;65471;55.908;37.880;2023-02-01T01:10:43;23.00;;;12.25;;
76589;SDS011;65471;55.908;37.880;2023-02-01T01:13:10;26.27;;;13.43;;
76589;SDS011;65471;55.908;37.880;2023-02-01T01:15:38;31.02;;;13.75;;
76589;SDS011;65471;55.908;37.880;2023-02-01T01:18:05;26.55;;;12.77;;
76589;SDS011;65471;55.908;37.880;2023-02-01T01:20:36;24.73;;;12.90;;
76589;SDS011;65471;55.908;37.880;2023-02-01T01:23:05;38.80;;;13.43;;
76589;SDS011;65471;55.908;37.880;2023-02-01T01:25:40;18.55;;;11.77;;
76589;SDS011;65471;55.908;37.880;2023-02-01T01:28:07;24.52;;;13.00;;
76589;SDS011;65471;55.908;37.880;2023-02-01T01:30:34;26.02;;;13.57;;
76589;SDS011;65471;55.908;37.880;2023-02-01T01:33:01;27.23;;;13.43;;
76589;SDS011;65471;55.908;37.880;2023-02-01T01:35:29;27.70;;;13.43;;
76589;SDS011;65471;55.908;37.880;2023-02-01T01:37:58;22.08;;;10.40;;
76589;SDS011;65471;55.908;37.880;2023-02-01T01:40:26;23.50;;;12.18;;
76589;SDS011;65471;55.908;37.880;2023-02-01T01:42:55;30.38;;;12.07;;
76589;SDS011;65471;55.908;37.880;2023-02-01T01:48:12;23.35;;;11.60;;
76589;SDS011;65471;55.908;37.880;2023-02-01T01:50:55;23.42;;;11.40;;
76589;SDS011;65471;55.908;37.880;2023-02-01T01:53:31;14.38;;;10.30;;
76589;SDS011;65471;55.908;37.880;2023-02-01T01:56:02;20.15;;;11.63;;
76589;SDS011;65471;55.908;37.880;2023-02-01T01:58:29;22.00;;;10.60;;
76589;SDS011;65471;55.908;37.880;2023-02-01T08:38:38;45.88;;;20.63;;
76589;SDS011;65471;55.908;37.880;2023-02-01T08:41:10;37.03;;;18.88;;
76589;SDS011;65471;55.908;37.880;2023-02-01T08:43:40;46.15;;;19.75;;
76589;SDS011;65471;55.908;37.880;2023-02-01T08:46:08;43.80;;;18.58;;
76589;SDS011;65471;55.908;37.880;2023-02-01T08:48:35;44.40;;;19.58;;
76589;SDS011;65471;55.908;37.880;2023-02-01T08:51:03;47.63;;;20.20;;
76589;SDS011;65471;55.908;37.880;2023-02-01T08:53:31;49.88;;;21.60;;
76589;SDS011;65471;55.908;37.880;2023-02-01T08:55:59;47.17;;;20.10;;
76589;SDS011;65471;55.908;37.880;2023-02-01T08:58:26;40.60;;;19.08;;
76589;SDS011;65471;55.908;37.880;2023-02-01T09:00:53;50.75;;;20.33;;
76589;SDS011;65471;55.908;37.880;2023-02-01T09:03:20;47.78;;;20.55;;
76589;SDS011;65471;55.908;37.880;2023-02-01T09:05:47;41.88;;;19.73;;
76589;SDS011;65471;55.908;37.880;2023-02-01T09:08:15;43.90;;;19.33;;
76589;SDS011;65471;55.908;37.880;2023-02-01T09:10:42;41.13;;;19.13;;
76589;SDS011;65471;55.908;37.880;2023-02-01T09:13:09;37.75;;;18.35;;
76589;SDS011;65471;55.908;37.880;2023-02-01T09:15:36;33.72;;;17.30;;
76589;SDS011;65471;55.908;37.880;2023-02-01T09:18:03;47.83;;;18.17;;
76589;SDS011;65471;55.908;37.880;2023-02-01T09:20:30;40.88;;;18.00;;
76589;SDS011;65471;55.908;37.880;2023-02-01T09:22:59;37.97;;;16.65;;
76589;SDS011;65471;55.908;37.880;2023-02-01T09:25:26;38.45;;;17.23;;
76589;SDS011;65471;55.908;37.880;2023-02-01T09:27:53;39.33;;;17.42;;
76589;SDS011;65471;55.908;37.880;2023-02-01T09:30:20;44.40;;;18.33;;
76589;SDS011;65471;55.908;37.880;2023-02-01T09:32:47;29.25;;;15.27;;
76589;SDS011;65471;55.908;37.880;2023-02-01T09:35:14;35.70;;;16.63;;
76589;SDS011;65471;55.908;37.880;2023-02-01T09:37:41;33.45;;;16.20;;
76589;SDS011;65471;55.908;37.880;2023-02-01T09:40:12;26.60;;;14.55;;
76589;SDS011;65471;55.908;37.880;2023-02-01T09:48:00;27.40;;;15.00;;
76589;SDS011;65471;55.908;37.880;2023-02-01T09:50:37;27.00;;;14.90;;
76589;SDS011;65471;55.908;37.880;2023-02-01T09:53:12;23.98;;;13.88;;
76589;SDS011;65471;55.908;37.880;2023-02-01T09:55:50;31.08;;;14.75;;
76589;SDS011;65471;55.908;37.880;2023-02-01T09:58:30;29.10;;;15.00;;
76589;SDS011;65471;55.908;37.880;2023-02-01T10:01:14;25.67;;;14.43;;
76589;SDS011;65471;55.908;37.880;2023-02-01T10:03:45;26.48;;;13.95;;
76589;SDS011;65471;55.908;37.880;2023-02-01T10:06:56;33.15;;;16.58;;
76589;SDS011;65471;55.908;37.880;2023-02-01T10:15:22;42.97;;;17.33;;
76589;SDS011;65471;55.908;37.880;2023-02-01T10:26:37;39.07;;;18.03;;
76589;SDS011;65471;55.908;37.880;2023-02-01T10:29:15;34.80;;;17.60;;
76589;SDS011;65471;55.908;37.880;2023-02-01T10:31:44;36.95;;;17.77;;
76589;SDS011;65471;55.908;37.880;2023-02-01T10:34:19;33.05;;;17.45;;
76589;SDS011;65471;55.908;37.880;2023-02-01T10:37:13;38.95;;;17.92;;
76589;SDS011;65471;55.908;37.880;2023-02-01T10:39:52;35.30;;;17.65;;
76589;SDS011;65471;55.908;37.880;2023-02-01T10:42:25;30.70;;;15.95;;
76589;SDS011;65471;55.908;37.880;2023-02-01T10:44:56;44.67;;;18.30;;
76589;SDS011;65471;55.908;37.880;2023-02-01T10:47:28;40.83;;;17.80;;
76589;SDS011;65471;55.908;37.880;2023-02-01T10:52:52;39.95;;;18.63;;
76589;SDS011;65471;55.908;37.880;2023-02-01T10:55:27;33.22;;;17.95;;
76589;SDS011;65471;55.908;37.880;2023-02-01T10:58:04;38.15;;;17.55;;
76589;SDS011;65471;55.908;37.880;2023-02-01T11:01:21;36.97;;;17.98;;
76589;SDS011;65471;55.908;37.880;2023-02-01T11:05:59;34.40;;;18.42;;
76589;SDS011;65471;55.908;37.880;2023-02-01T11:08:27;44.85;;;17.10;;
76589;SDS011;65471;55.908;37.880;2023-02-01T11:10:59;36.58;;;19.13;;
76589;SDS011;65471;55.908;37.880;2023-02-01T11:13:29;32.72;;;17.90;;
76589;SDS011;65471;55.908;37.880;2023-02-01T11:16:05;32.58;;;17.90;;
76589;SDS011;65471;55.908;37.880;2023-02-01T11:18:36;38.80;;;18.35;;
76589;SDS011;65471;55.908;37.880;2023-02-01T11:23:39;33.30;;;17.65;;
76589;SDS011;65471;55.908;37.880;2023-02-01T11:28:38;42.47;;;19.40;;
76589;SDS011;65471;55.908;37.880;2023-02-01T11:31:09;43.67;;;19.73;;
76589;SDS011;65471;55.908;37.880;2023-02-01T11:33:41;36.25;;;18.50;;
76589;SDS011;65471;55.908;37.880;2023-02-01T11:36:27;32.42;;;17.83;;
76589;SDS011;65471;55.908;37.880;2023-02-01T11:49:59;41.00;;;19.15;;
76589;SDS011;65471;55.908;37.880;2023-02-01T12:00:27;39.92;;;20.77;;
76589;SDS011;65471;55.908;37.880;2023-02-01T12:11:25;41.25;;;20.30;;
76589;SDS011;65471;55.908;37.880;2023-02-01T12:40:20;40.13;;;18.05;;
76589;SDS011;65471;55.908;37.880;2023-02-01T12:43:33;43.28;;;18.83;;
76589;SDS011;65471;55.908;37.880;2023-02-01T12:46:12;36.47;;;17.92;;
76589;SDS011;65471;55.908;37.880;2023-02-01T12:51:39;41.00;;;19.20;;
76589;SDS011;65471;55.908;37.880;2023-02-01T12:54:22;34.65;;;17.48;;
76589;SDS011;65471;55.908;37.880;2023-02-01T12:57:02;40.50;;;16.73;;
76589;SDS011;65471;55.908;37.880;2023-02-01T13:02:22;40.47;;;18.15;;
76589;SDS011;65471;55.908;37.880;2023-02-01T13:08:04;42.03;;;17.45;;
76589;SDS011;65471;55.908;37.880;2023-02-01T13:10:38;34.95;;;17.77;;
76589;SDS011;65471;55.908;37.880;2023-02-01T13:16:13;32.10;;;17.00;;
76589;SDS011;65471;55.908;37.880;2023-02-01T13:18:45;40.33;;;17.23;;
76589;SDS011;65471;55.908;37.880;2023-02-01T13:21:17;42.83;;;16.83;;
76589;SDS011;65471;55.908;37.880;2023-02-01T13:23:50;37.38;;;16.30;;
76589;SDS011;65471;55.908;37.880;2023-02-01T13:26:18;33.85;;;16.13;;
76589;SDS011;65471;55.908;37.880;2023-02-01T13:28:46;28.67;;;15.00;;
76589;SDS011;65471;55.908;37.880;2023-02-01T13:39:59;28.85;;;14.70;;
76589;SDS011;65471;55.908;37.880;2023-02-01T13:45:20;27.17;;;14.65;;
76589;SDS011;65471;55.908;37.880;2023-02-01T13:47:55;26.30;;;12.88;;
76589;SDS011;65471;55.908;37.880;2023-02-01T13:53:11;27.08;;;14.57;;
76589;SDS011;65471;55.908;37.880;2023-02-01T13:55:56;32.72;;;14.73;;
76589;SDS011;65471;55.908;37.880;2023-02-01T13:58:36;34.53;;;15.27;;
76589;SDS011;65471;55.908;37.880;2023-02-01T14:01:31;28.20;;;14.23;;
76589;SDS011;65471;55.908;37.880;2023-02-01T14:04:01;32.33;;;14.70;;
76589;SDS011;65471;55.908;37.880;2023-02-01T14:09:10;34.33;;;16.00;;
76589;SDS011;65471;55.908;37.880;2023-02-01T14:19:25;34.60;;;16.23;;
76589;SDS011;65471;55.908;37.880;2023-02-01T14:27:20;32.95;;;16.98;;
76589;SDS011;65471;55.908;37.880;2023-02-01T14:30:01;38.08;;;16.73;;
76589;SDS011;65471;55.908;37.880;2023-02-01T14:32:34;34.22;;;16.30;;
76589;SDS011;65471;55.908;37.880;2023-02-01T14:35:20;36.95;;;17.38;;
76589;SDS011;65471;55.908;37.880;2023-02-01T14:37:58;30.45;;;16.30;;
76589;SDS011;65471;55.908;37.880;2023-02-01T14:40:30;39.50;;;17.35;;
76589;SDS011;65471;55.908;37.880;2023-02-01T14:42:57;47.33;;;18.83;;
76589;SDS011;65471;55.908;37.880;2023-02-01T15:09:25;34.03;;;15.55;;
76589;SDS011;65471;55.908;37.880;2023-02-01T15:12:40;41.80;;;17.27;;
76589;SDS011;65471;55.908;37.880;2023-02-01T15:14:47;40.10;;;17.75;;
76589;SDS011;65471;55.908;37.880;2023-02-01T15:17:31;42.42;;;17.10;;
76589;SDS011;65471;55.908;37.880;2023-02-01T15:20:20;36.70;;;16.50;;
76589;SDS011;65471;55.908;37.880;2023-02-01T15:22:53;42.65;;;17.40;;
76589;SDS011;65471;55.908;37.880;2023-02-01T15:28:01;38.30;;;17.55;;
76589;SDS011;65471;55.908;37.880;2023-02-01T15:30:31;45.83;;;19.17;;
76589;SDS011;65471;55.908;37.880;2023-02-01T15:33:04;33.22;;;18.38;;
76589;SDS011;65471;55.908;37.880;2023-02-01T15:35:42;37.88;;;17.70;;
76589;SDS011;65471;55.908;37.880;2023-02-01T15:44:02;44.17;;;20.60;;
76589;SDS011;65471;55.908;37.880;2023-02-01T15:49:02;45.95;;;18.45;;
76589;SDS011;65471;55.908;37.880;2023-02-01T15:51:31;44.15;;;18.45;;
76589;SDS011;65471;55.908;37.880;2023-02-01T15:54:02;42.80;;;19.60;;
76589;SDS011;65471;55.908;37.880;2023-02-01T15:56:35;42.70;;;18.73;;
76589;SDS011;65471;55.908;37.880;2023-02-01T15:59:04;46.33;;;20.02;;
76589;SDS011;65471;55.908;37.880;2023-02-01T16:01:39;38.00;;;19.05;;
76589;SDS011;65471;55.908;37.880;2023-02-01T16:06:51;45.83;;;19.35;;
76589;SDS011;65471;55.908;37.880;2023-02-01T16:09:20;46.22;;;20.05;;
76589;SDS011;65471;55.908;37.880;2023-02-01T16:14:27;48.40;;;21.33;;
76589;SDS011;65471;55.908;37.880;2023-02-01T16:16:55;42.05;;;19.17;;
76589;SDS011;65471;55.908;37.880;2023-02-01T16:19:24;49.33;;;20.33;;
76589;SDS011;65471;55.908;37.880;2023-02-01T16:21:55;39.55;;;19.70;;
76589;SDS011;65471;55.908;37.880;2023-02-01T16:24:26;42.15;;;18.92;;
76589;SDS011;65471;55.908;37.880;2023-02-01T16:26:54;53.63;;;21.00;;
76589;SDS011;65471;55.908;37.880;2023-02-01T16:29:21;39.83;;;19.20;;
76589;SDS011;65471;55.908;37.880;2023-02-01T16:31:48;46.67;;;18.95;;
76589;SDS011;65471;55.908;37.880;2023-02-01T16:34:16;36.70;;;19.35;;
76589;SDS011;65471;55.908;37.880;2023-02-01T16:36:46;44.58;;;19.80;;
76589;SDS011;65471;55.908;37.880;2023-02-01T16:39:25;42.58;;;18.80;;
76589;SDS011;65471;55.908;37.880;2023-02-01T16:41:54;44.17;;;19.95;;
76589;SDS011;65471;55.908;37.880;2023-02-01T16:44:20;47.20;;;20.00;;
76589;SDS011;65471;55.908;37.880;2023-02-01T16:46:47;41.50;;;18.65;;
76589;SDS011;65471;55.908;37.880;2023-02-01T16:51:45;46.63;;;19.08;;
76589;SDS011;65471;55.908;37.880;2023-02-01T16:54:14;44.40;;;18.35;;
76589;SDS011;65471;55.908;37.880;2023-02-01T16:56:40;52.28;;;20.85;;
76589;SDS011;65471;55.908;37.880;2023-02-01T16:59:08;49.42;;;20.17;;
76589;SDS011;65471;55.908;37.880;2023-02-01T17:01:36;60.95;;;21.17;;
76589;SDS011;65471;55.908;37.880;2023-02-01T17:04:10;56.15;;;25.25;;
76589;SDS011;65471;55.908;37.880;2023-02-01T17:06:38;68.00;;;28.38;;
76589;SDS011;65471;55.908;37.880;2023-02-01T17:09:05;58.05;;;23.92;;
76589;SDS011;65471;55.908;37.880;2023-02-01T17:11:32;57.92;;;21.90;;
76589;SDS011;65471;55.908;37.880;2023-02-01T17:14:15;68.20;;;26.63;;
76589;SDS011;65471;55.908;37.880;2023-02-01T17:16:45;61.40;;;24.63;;
76589;SDS011;65471;55.908;37.880;2023-02-01T17:19:15;64.18;;;24.08;;
76589;SDS011;65471;55.908;37.880;2023-02-01T17:21:45;64.68;;;24.08;;
76589;SDS011;65471;55.908;37.880;2023-02-01T17:24:16;57.85;;;24.77;;
76589;SDS011;65471;55.908;37.880;2023-02-01T17:29:15;58.38;;;24.17;;
76589;SDS011;65471;55.908;37.880;2023-02-01T17:31:46;59.33;;;23.33;;
76589;SDS011;65471;55.908;37.880;2023-02-01T17:34:15;63.97;;;25.10;;
76589;SDS011;65471;55.908;37.880;2023-02-01T17:36:44;63.67;;;24.02;;
76589;SDS011;65471;55.908;37.880;2023-02-01T17:39:13;49.50;;;20.73;;
76589;SDS011;65471;55.908;37.880;2023-02-01T17:42:01;63.80;;;25.30;;
76589;SDS011;65471;55.908;37.880;2023-02-01T17:44:29;70.57;;;24.23;;
76589;SDS011;65471;55.908;37.880;2023-02-01T17:46:59;62.03;;;25.25;;
76589;SDS011;65471;55.908;37.880;2023-02-01T17:49:26;65.97;;;24.92;;
76589;SDS011;65471;55.908;37.880;2023-02-01T17:51:56;74.65;;;27.17;;
76589;SDS011;65471;55.908;37.880;2023-02-01T17:54:24;63.15;;;25.85;;
76589;SDS011;65471;55.908;37.880;2023-02-01T17:56:52;68.03;;;24.48;;
76589;SDS011;65471;55.908;37.880;2023-02-01T17:59:19;61.08;;;23.08;;
76589;SDS011;65471;55.908;37.880;2023-02-01T18:01:45;54.25;;;24.13;;
76589;SDS011;65471;55.908;37.880;2023-02-01T18:04:14;57.05;;;24.23;;
76589;SDS011;65471;55.908;37.880;2023-02-01T18:06:44;61.40;;;24.65;;
76589;SDS011;65471;55.908;37.880;2023-02-01T18:09:13;48.67;;;22.58;;
76589;SDS011;65471;55.908;37.880;2023-02-01T18:11:39;61.55;;;22.80;;
76589;SDS011;65471;55.908;37.880;2023-02-01T18:14:09;54.15;;;23.98;;
76589;SDS011;65471;55.908;37.880;2023-02-01T18:16:38;54.13;;;22.58;;
76589;SDS011;65471;55.908;37.880;2023-02-01T18:19:05;57.03;;;22.38;;
76589;SDS011;65471;55.908;37.880;2023-02-01T18:21:38;52.05;;;22.13;;
76589;SDS011;65471;55.908;37.880;2023-02-01T18:24:11;52.38;;;22.70;;
76589;SDS011;65471;55.908;37.880;2023-02-01T18:26:40;49.83;;;22.27;;
76589;SDS011;65471;55.908;37.880;2023-02-01T18:29:07;54.33;;;22.30;;
76589;SDS011;65471;55.908;37.880;2023-02-01T18:31:36;47.85;;;22.23;;
76589;SDS011;65471;55.908;37.880;2023-02-01T18:34:09;50.42;;;22.63;;
76589;SDS011;65471;55.908;37.880;2023-02-01T18:36:42;40.90;;;20.83;;
76589;SDS011;65471;55.908;37.880;2023-02-01T18:39:08;45.03;;;21.63;;
76589;SDS011;65471;55.908;37.880;2023-02-01T18:41:36;45.95;;;21.48;;
76589;SDS011;65471;55.908;37.880;2023-02-01T18:44:03;48.22;;;22.25;;
76589;SDS011;65471;55.908;37.880;2023-02-01T18:46:30;45.63;;;20.63;;
76589;SDS011;65471;55.908;37.880;2023-02-01T18:48:57;41.03;;;19.92;;
76589;SDS011;65471;55.908;37.880;2023-02-01T18:51:24;44.78;;;21.00;;
76589;SDS011;65471;55.908;37.880;2023-02-01T18:53:50;45.22;;;22.05;;
76589;SDS011;65471;55.908;37.880;2023-02-01T18:56:17;38.83;;;19.88;;
76589;SDS011;65471;55.908;37.880;2023-02-01T18:58:44;44.95;;;21.23;;
76589;SDS011;65471;55.908;37.880;2023-02-01T19:01:13;50.85;;;22.08;;
76589;SDS011;65471;55.908;37.880;2023-02-01T19:03:45;47.45;;;21.17;;
76589;SDS011;65471;55.908;37.880;2023-02-01T19:06:24;51.20;;;21.50;;
76589;SDS011;65471;55.908;37.880;2023-02-01T19:08:51;55.08;;;21.75;;
76589;SDS011;65471;55.908;37.880;2023-02-01T19:11:21;40.70;;;20.77;;
76589;SDS011;65471;55.908;37.880;2023-02-01T19:13:48;50.20;;;20.95;;
76589;SDS011;65471;55.908;37.880;2023-02-01T19:16:16;49.95;;;21.48;;
76589;SDS011;65471;55.908;37.880;2023-02-01T19:18:43;44.28;;;21.35;;
76589;SDS011;65471;55.908;37.880;2023-02-01T19:21:10;47.92;;;21.52;;
76589;SDS011;65471;55.908;37.880;2023-02-01T19:23:39;48.20;;;20.13;;
76589;SDS011;65471;55.908;37.880;2023-02-01T19:26:11;46.30;;;21.00;;
76589;SDS011;65471;55.908;37.880;2023-02-01T19:28:39;45.00;;;20.42;;
76589;SDS011;65471;55.908;37.880;2023-02-01T19:31:07;39.33;;;19.48;;
76589;SDS011;65471;55.908;37.880;2023-02-01T19:33:34;47.30;;;20.75;;
76589;SDS011;65471;55.908;37.880;2023-02-01T19:36:03;41.22;;;20.52;;
76589;SDS011;65471;55.908;37.880;2023-02-01T19:41:01;46.15;;;20.45;;
76589;SDS011;65471;55.908;37.880;2023-02-01T19:43:27;41.28;;;20.52;;
76589;SDS011;65471;55.908;37.880;2023-02-01T19:45:54;41.72;;;20.55;;
76589;SDS011;65471;55.908;37.880;2023-02-01T19:48:22;35.28;;;16.42;;
76589;SDS011;65471;55.908;37.880;2023-02-01T19:50:50;29.92;;;15.13;;
76589;SDS011;65471;55.908;37.880;2023-02-01T19:53:17;41.33;;;18.25;;
76589;SDS011;65471;55.908;37.880;2023-02-01T19:55:45;42.90;;;19.30;;
76589;SDS011;65471;55.908;37.880;2023-02-01T19:58:12;40.97;;;18.55;;
76589;SDS011;65471;55.908;37.880;2023-02-01T20:00:40;43.85;;;19.15;;
76589;SDS011;65471;55.908;37.880;2023-02-01T20:03:14;38.90;;;18.48;;
76589;SDS011;65471;55.908;37.880;2023-02-01T20:05:41;42.33;;;18.45;;
76589;SDS011;65471;55.908;37.880;2023-02-01T20:08:09;34.25;;;19.13;;
76589;SDS011;65471;55.908;37.880;2023-02-01T20:10:35;50.38;;;19.77;;
76589;SDS011;65471;55.908;37.880;2023-02-01T20:13:09;40.00;;;18.20;;
76589;SDS011;65471;55.908;37.880;2023-02-01T20:15:37;39.80;;;18.83;;
76589;SDS011;65471;55.908;37.880;2023-02-01T20:18:03;43.00;;;20.25;;
76589;SDS011;65471;55.908;37.880;2023-02-01T20:20:30;44.15;;;20.30;;
76589;SDS011;65471;55.908;37.880;2023-02-01T20:22:57;37.20;;;18.25;;
76589;SDS011;65471;55.908;37.880;2023-02-01T20:25:24;36.53;;;18.90;;
76589;SDS011;65471;55.908;37.880;2023-02-01T20:27:51;44.58;;;20.15;;
76589;SDS011;65471;55.908;37.880;2023-02-01T20:30:18;47.83;;;19.50;;
76589;SDS011;65471;55.908;37.880;2023-02-01T20:32:50;42.40;;;20.65;;
76589;SDS011;65471;55.908;37.880;2023-02-01T20:35:21;40.67;;;20.35;;
76589;SDS011;65471;55.908;37.880;2023-02-01T20:37:48;40.70;;;20.27;;
76589;SDS011;65471;55.908;37.880;2023-02-01T20:40:17;44.70;;;20.45;;
76589;SDS011;65471;55.908;37.880;2023-02-01T20:42:43;37.28;;;19.83;;
76589;SDS011;65471;55.908;37.880;2023-02-01T20:45:10;40.90;;;20.10;;
76589;SDS011;65471;55.908;37.880;2023-02-01T20:47:37;45.95;;;21.50;;
76589;SDS011;65471;55.908;37.880;2023-02-01T20:55:02;41.80;;;19.58;;
76589;SDS011;65471;55.908;37.880;2023-02-01T20:57:29;40.50;;;19.27;;
76589;SDS011;65471;55.908;37.880;2023-02-01T20:59:55;42.95;;;19.95;;
76589;SDS011;65471;55.908;37.880;2023-02-01T21:02:23;43.95;;;20.50;;
76589;SDS011;65471;55.908;37.880;2023-02-01T21:04:50;53.60;;;22.85;;
76589;SDS011;65471;55.908;37.880;2023-02-01T21:07:17;40.53;;;21.27;;
76589;SDS011;65471;55.908;37.880;2023-02-01T21:09:45;48.08;;;21.90;;
76589;SDS011;65471;55.908;37.880;2023-02-01T21:12:11;46.50;;;21.35;;
76589;SDS011;65471;55.908;37.880;2023-02-01T21:14:39;46.28;;;21.35;;
76589;SDS011;65471;55.908;37.880;2023-02-01T21:17:05;50.55;;;21.98;;
76589;SDS011;65471;55.908;37.880;2023-02-01T21:22:09;39.30;;;19.73;;
76589;SDS011;65471;55.908;37.880;2023-02-01T21:24:37;49.03;;;22.23;;
76589;SDS011;65471;55.908;37.880;2023-02-01T21:27:06;54.10;;;22.05;;
76589;SDS011;65471;55.908;37.880;2023-02-01T21:29:36;45.13;;;21.40;;
76589;SDS011;65471;55.908;37.880;2023-02-01T21:32:04;46.60;;;21.52;;
76589;SDS011;65471;55.908;37.880;2023-02-01T21:34:32;49.88;;;22.85;;
76589;SDS011;65471;55.908;37.880;2023-02-01T21:36:59;44.13;;;20.77;;
76589;SDS011;65471;55.908;37.880;2023-02-01T21:39:27;53.78;;;22.63;;
76589;SDS011;65471;55.908;37.880;2023-02-01T21:41:55;49.47;;;21.98;;
76589;SDS011;65471;55.908;37.880;2023-02-01T21:44:42;46.63;;;21.55;;
76589;SDS011;65471;55.908;37.880;2023-02-01T21:47:13;50.97;;;21.92;;
76589;SDS011;65471;55.908;37.880;2023-02-01T21:49:46;52.65;;;21.70;;
76589;SDS011;65471;55.908;37.880;2023-02-01T21:52:17;46.25;;;21.90;;
76589;SDS011;65471;55.908;37.880;2023-02-01T21:54:45;50.10;;;22.58;;
76589;SDS011;65471;55.908;37.880;2023-02-01T21:57:12;49.67;;;22.38;;
76589;SDS011;65471;55.908;37.880;2023-02-01T21:59:40;55.10;;;23.50;;
76589;SDS011;65471;55.908;37.880;2023-02-01T22:07:04;47.72;;;21.50;;
76589;SDS011;65471;55.908;37.880;2023-02-01T22:09:31;48.85;;;22.38;;
76589;SDS011;65471;55.908;37.880;2023-02-01T22:11:57;51.67;;;21.63;;
76589;SDS011;65471;55.908;37.880;2023-02-01T22:14:26;46.70;;;21.60;;
76589;SDS011;65471;55.908;37.880;2023-02-01T22:16:53;51.92;;;24.73;;
76589;SDS011;65471;55.908;37.880;2023-02-01T22:19:19;64.72;;;25.10;;
76589;SDS011;65471;55.908;37.880;2023-02-01T22:21:46;49.08;;;23.80;;
76589;SDS011;65471;55.908;37.880;2023-02-01T22:24:15;63.75;;;25.42;;
76589;SDS011;65471;55.908;37.880;2023-02-01T22:26:43;62.40;;;24.38;;
76589;SDS011;65471;55.908;37.880;2023-02-01T22:29:11;55.50;;;24.05;;
76589;SDS011;65471;55.908;37.880;2023-02-01T22:31:38;45.08;;;21.60;;
76589;SDS011;65471;55.908;37.880;2023-02-01T22:34:06;53.22;;;24.13;;
76589;SDS011;65471;55.908;37.880;2023-02-01T22:36:35;44.38;;;20.75;;
76589;SDS011;65471;55.908;37.880;2023-02-01T22:39:02;56.58;;;22.83;;
76589;SDS011;65471;55.908;37.880;2023-02-01T22:41:29;58.47;;;24.33;;
76589;SDS011;65471;55.908;37.880;2023-02-01T22:43:56;48.58;;;21.92;;
76589;SDS011;65471;55.908;37.880;2023-02-01T22:46:29;57.08;;;26.23;;
76589;SDS011;65471;55.908;37.880;2023-02-01T22:48:59;55.63;;;22.33;;
76589;SDS011;65471;55.908;37.880;2023-02-01T22:51:27;47.63;;;22.60;;
76589;SDS011;65471;55.908;37.880;2023-02-01T22:53:55;49.70;;;22.10;;
76589;SDS011;65471;55.908;37.880;2023-02-01T22:56:25;49.90;;;22.27;;
76589;SDS011;65471;55.908;37.880;2023-02-01T22:58:56;44.70;;;20.48;;
76589;SDS011;65471;55.908;37.880;2023-02-01T23:01:24;51.05;;;21.70;;
76589;SDS011;65471;55.908;37.880;2023-02-01T23:03:55;51.05;;;21.75;;
76589;SDS011;65471;55.908;37.880;2023-02-01T23:06:23;49.83;;;22.20;;
76589;SDS011;65471;55.908;37.880;2023-02-01T23:08:54;45.72;;;21.67;;
76589;SDS011;65471;55.908;37.880;2023-02-01T23:11:25;50.80;;;22.30;;
76589;SDS011;65471;55.908;37.880;2023-02-01T23:13:52;48.13;;;21.60;;
76589;SDS011;65471;55.908;37.880;2023-02-01T23:16:22;41.90;;;19.83;;
76589;SDS011;65471;55.908;37.880;2023-02-01T23:18:55;43.97;;;19.92;;
76589;SDS011;65471;55.908;37.880;2023-02-01T23:21:22;43.25;;;21.00;;
76589;SDS011;65471;55.908;37.880;2023-02-01T23:23:52;40.20;;;19.48;;
76589;SDS011;65471;55.908;37.880;2023-02-01T23:26:23;49.17;;;21.15;;
76589;SDS011;65471;55.908;37.880;2023-02-01T23:28:52;44.78;;;19.77;;
76589;SDS011;65471;55.908;37.880;2023-02-01T23:33:48;47.22;;;19.20;;
76589;SDS011;65471;55.908;37.880;2023-02-01T23:36:23;44.92;;;19.35;;
76589;SDS011;65471;55.908;37.880;2023-02-01T23:38:50;43.03;;;19.83;;
76589;SDS011;65471;55.908;37.880;2023-02-01T23:41:18;40.55;;;19.02;;
76589;SDS011;65471;55.908;37.880;2023-02-01T23:43:46;46.35;;;21.50;;
76589;SDS011;65471;55.908;37.880;2023-02-01T23:46:26;49.08;;;20.92;;
76589;SDS011;65471;55.908;37.880;2023-02-01T23:48:58;41.42;;;20.25;;
76589;SDS011;65471;55.908;37.880;2023-02-01T23:51:26;42.27;;;21.43;;
76589;SDS011;65471;55.908;37.880;2023-02-01T23:53:54;50.50;;;21.88;;
76589;SDS011;65471;55.908;37.880;2023-02-01T23:56:40;43.53;;;20.40;;
76589;SDS011;65471;55.908;37.880;2023-02-01T23:59:12;48.65;;;22.52;;
